sensor_id;sensor_type;location;lat;lon;timestamp;P1;durP1;ratioP1;P2;durP2;ratioP2
75216;SDS011;63800;51.972;5.682;2023-05-18T00:02:02;4.85;;;2.75;;
75216;SDS011;63800;51.972;5.682;2023-05-18T00:04:29;3.13;;;2.38;;
75216;SDS011;63800;51.972;5.682;2023-05-18T00:06:57;4.00;;;2.42;;
75216;SDS011;63800;51.972;5.682;2023-05-18T00:09:27;3.85;;;2.63;;
75216;SDS011;63800;51.972;5.682;2023-05-18T00:11:54;6.10;;;2.50;;
75216;SDS011;63800;51.972;5.682;2023-05-18T00:14:20;4.38;;;2.10;;
75216;SDS011;63800;51.972;5.682;2023-05-18T00:16:46;4.53;;;2.35;;
75216;SDS011;63800;51.972;5.682;2023-05-18T00:19:12;5.18;;;2.30;;
75216;SDS011;63800;51.972;5.682;2023-05-18T00:21:39;5.55;;;2.90;;
75216;SDS011;63800;51.972;5.682;2023-05-18T00:24:06;4.78;;;2.55;;
75216;SDS011;63800;51.972;5.682;2023-05-18T00:26:32;5.85;;;2.58;;
75216;SDS011;63800;51.972;5.682;2023-05-18T00:28:57;5.82;;;2.33;;
75216;SDS011;63800;51.972;5.682;2023-05-18T00:31:23;5.50;;;2.30;;
75216;SDS011;63800;51.972;5.682;2023-05-18T00:33:48;5.30;;;2.20;;
75216;SDS011;63800;51.972;5.682;2023-05-18T00:36:14;6.28;;;2.88;;
75216;SDS011;63800;51.972;5.682;2023-05-18T00:38:39;6.32;;;3.05;;
75216;SDS011;63800;51.972;5.682;2023-05-18T00:41:05;5.15;;;2.20;;
75216;SDS011;63800;51.972;5.682;2023-05-18T00:43:30;4.28;;;2.05;;
75216;SDS011;63800;51.972;5.682;2023-05-18T00:45:55;2.83;;;2.40;;
75216;SDS011;63800;51.972;5.682;2023-05-18T00:48:21;5.00;;;2.40;;
75216;SDS011;63800;51.972;5.682;2023-05-18T00:50:47;4.53;;;2.50;;
75216;SDS011;63800;51.972;5.682;2023-05-18T00:53:12;8.15;;;2.97;;
75216;SDS011;63800;51.972;5.682;2023-05-18T00:55:38;5.05;;;2.45;;
75216;SDS011;63800;51.972;5.682;2023-05-18T00:58:03;5.82;;;2.22;;
75216;SDS011;63800;51.972;5.682;2023-05-18T01:00:29;5.80;;;2.72;;
75216;SDS011;63800;51.972;5.682;2023-05-18T01:02:55;3.60;;;2.25;;
75216;SDS011;63800;51.972;5.682;2023-05-18T01:05:21;6.30;;;2.47;;
75216;SDS011;63800;51.972;5.682;2023-05-18T01:07:47;4.55;;;2.50;;
75216;SDS011;63800;51.972;5.682;2023-05-18T01:10:15;4.65;;;2.47;;
75216;SDS011;63800;51.972;5.682;2023-05-18T01:15:18;7.78;;;3.05;;
75216;SDS011;63800;51.972;5.682;2023-05-18T01:20:48;5.22;;;2.90;;
75216;SDS011;63800;51.972;5.682;2023-05-18T01:26:16;5.97;;;2.80;;
75216;SDS011;63800;51.972;5.682;2023-05-18T01:28:53;6.18;;;3.00;;
75216;SDS011;63800;51.972;5.682;2023-05-18T01:31:22;5.63;;;2.60;;
75216;SDS011;63800;51.972;5.682;2023-05-18T01:33:47;4.85;;;2.67;;
75216;SDS011;63800;51.972;5.682;2023-05-18T01:36:13;7.78;;;2.80;;
75216;SDS011;63800;51.972;5.682;2023-05-18T01:38:38;7.95;;;2.70;;
75216;SDS011;63800;51.972;5.682;2023-05-18T01:44:07;4.05;;;2.92;;
75216;SDS011;63800;51.972;5.682;2023-05-18T01:46:42;6.55;;;2.90;;
75216;SDS011;63800;51.972;5.682;2023-05-18T01:49:31;7.18;;;2.78;;
75216;SDS011;63800;51.972;5.682;2023-05-18T01:52:01;6.25;;;2.97;;
75216;SDS011;63800;51.972;5.682;2023-05-18T01:54:32;6.03;;;2.87;;
75216;SDS011;63800;51.972;5.682;2023-05-18T01:57:01;4.20;;;2.63;;
75216;SDS011;63800;51.972;5.682;2023-05-18T01:59:30;6.15;;;3.10;;
75216;SDS011;63800;51.972;5.682;2023-05-18T02:01:59;5.47;;;2.72;;
75216;SDS011;63800;51.972;5.682;2023-05-18T02:04:25;5.65;;;2.60;;
75216;SDS011;63800;51.972;5.682;2023-05-18T02:06:51;7.53;;;3.00;;
75216;SDS011;63800;51.972;5.682;2023-05-18T02:09:18;4.90;;;2.97;;
75216;SDS011;63800;51.972;5.682;2023-05-18T02:11:45;5.45;;;3.00;;
75216;SDS011;63800;51.972;5.682;2023-05-18T02:14:10;5.47;;;3.08;;
75216;SDS011;63800;51.972;5.682;2023-05-18T02:16:36;7.18;;;2.97;;
75216;SDS011;63800;51.972;5.682;2023-05-18T02:19:01;5.88;;;2.97;;
75216;SDS011;63800;51.972;5.682;2023-05-18T02:21:27;5.57;;;2.92;;
75216;SDS011;63800;51.972;5.682;2023-05-18T02:23:53;5.75;;;2.80;;
75216;SDS011;63800;51.972;5.682;2023-05-18T02:26:18;6.63;;;2.72;;
75216;SDS011;63800;51.972;5.682;2023-05-18T02:28:44;5.10;;;2.78;;
75216;SDS011;63800;51.972;5.682;2023-05-18T02:31:10;4.22;;;2.50;;
75216;SDS011;63800;51.972;5.682;2023-05-18T02:33:36;5.47;;;3.30;;
75216;SDS011;63800;51.972;5.682;2023-05-18T02:36:11;4.85;;;3.00;;
75216;SDS011;63800;51.972;5.682;2023-05-18T02:38:38;4.78;;;2.80;;
75216;SDS011;63800;51.972;5.682;2023-05-18T02:41:05;4.32;;;2.60;;
75216;SDS011;63800;51.972;5.682;2023-05-18T02:43:31;13.07;;;3.35;;
75216;SDS011;63800;51.972;5.682;2023-05-18T02:45:56;6.28;;;2.90;;
75216;SDS011;63800;51.972;5.682;2023-05-18T02:48:22;4.65;;;2.70;;
75216;SDS011;63800;51.972;5.682;2023-05-18T02:50:48;5.15;;;2.80;;
75216;SDS011;63800;51.972;5.682;2023-05-18T02:53:13;6.03;;;3.13;;
75216;SDS011;63800;51.972;5.682;2023-05-18T02:55:39;5.22;;;3.05;;
75216;SDS011;63800;51.972;5.682;2023-05-18T02:58:05;5.78;;;2.67;;
75216;SDS011;63800;51.972;5.682;2023-05-18T03:00:31;4.82;;;2.60;;
75216;SDS011;63800;51.972;5.682;2023-05-18T03:02:57;5.78;;;2.83;;
75216;SDS011;63800;51.972;5.682;2023-05-18T03:05:24;6.60;;;2.85;;
75216;SDS011;63800;51.972;5.682;2023-05-18T03:07:51;7.05;;;3.58;;
75216;SDS011;63800;51.972;5.682;2023-05-18T03:10:17;4.65;;;2.80;;
75216;SDS011;63800;51.972;5.682;2023-05-18T03:12:43;6.45;;;2.85;;
75216;SDS011;63800;51.972;5.682;2023-05-18T03:15:09;6.40;;;3.28;;
75216;SDS011;63800;51.972;5.682;2023-05-18T03:17:35;7.75;;;3.30;;
75216;SDS011;63800;51.972;5.682;2023-05-18T03:20:01;7.25;;;3.08;;
75216;SDS011;63800;51.972;5.682;2023-05-18T03:22:28;6.38;;;2.65;;
75216;SDS011;63800;51.972;5.682;2023-05-18T03:24:54;8.02;;;3.17;;
75216;SDS011;63800;51.972;5.682;2023-05-18T03:27:19;5.38;;;3.08;;
75216;SDS011;63800;51.972;5.682;2023-05-18T03:29:49;6.78;;;3.00;;
75216;SDS011;63800;51.972;5.682;2023-05-18T03:32:16;6.15;;;3.42;;
75216;SDS011;63800;51.972;5.682;2023-05-18T03:34:42;4.20;;;3.10;;
75216;SDS011;63800;51.972;5.682;2023-05-18T03:37:08;5.65;;;3.22;;
75216;SDS011;63800;51.972;5.682;2023-05-18T03:39:34;8.10;;;3.50;;
75216;SDS011;63800;51.972;5.682;2023-05-18T03:41:59;6.07;;;3.40;;
75216;SDS011;63800;51.972;5.682;2023-05-18T03:44:25;6.97;;;3.50;;
75216;SDS011;63800;51.972;5.682;2023-05-18T03:46:50;7.38;;;3.10;;
75216;SDS011;63800;51.972;5.682;2023-05-18T03:49:16;7.82;;;3.17;;
75216;SDS011;63800;51.972;5.682;2023-05-18T03:51:41;4.10;;;3.20;;
75216;SDS011;63800;51.972;5.682;2023-05-18T03:54:07;5.65;;;3.33;;
75216;SDS011;63800;51.972;5.682;2023-05-18T03:56:32;8.55;;;3.80;;
75216;SDS011;63800;51.972;5.682;2023-05-18T03:58:58;5.47;;;2.92;;
75216;SDS011;63800;51.972;5.682;2023-05-18T04:01:24;8.55;;;3.13;;
75216;SDS011;63800;51.972;5.682;2023-05-18T04:03:49;5.07;;;2.70;;
75216;SDS011;63800;51.972;5.682;2023-05-18T04:06:15;8.02;;;3.22;;
75216;SDS011;63800;51.972;5.682;2023-05-18T04:08:41;5.75;;;3.20;;
75216;SDS011;63800;51.972;5.682;2023-05-18T04:11:07;7.18;;;3.20;;
75216;SDS011;63800;51.972;5.682;2023-05-18T04:13:33;6.57;;;2.85;;
75216;SDS011;63800;51.972;5.682;2023-05-18T04:16:01;6.07;;;3.25;;
75216;SDS011;63800;51.972;5.682;2023-05-18T04:18:27;6.60;;;3.22;;
75216;SDS011;63800;51.972;5.682;2023-05-18T04:20:54;7.10;;;3.22;;
75216;SDS011;63800;51.972;5.682;2023-05-18T04:23:20;5.00;;;2.90;;
75216;SDS011;63800;51.972;5.682;2023-05-18T04:25:46;5.28;;;3.47;;
75216;SDS011;63800;51.972;5.682;2023-05-18T04:28:13;6.00;;;3.22;;
75216;SDS011;63800;51.972;5.682;2023-05-18T04:30:39;5.30;;;2.97;;
75216;SDS011;63800;51.972;5.682;2023-05-18T04:33:04;3.85;;;3.00;;
75216;SDS011;63800;51.972;5.682;2023-05-18T04:35:31;5.50;;;2.85;;
75216;SDS011;63800;51.972;5.682;2023-05-18T04:37:56;7.20;;;3.38;;
75216;SDS011;63800;51.972;5.682;2023-05-18T04:40:22;5.03;;;3.05;;
75216;SDS011;63800;51.972;5.682;2023-05-18T04:42:49;6.53;;;3.28;;
75216;SDS011;63800;51.972;5.682;2023-05-18T04:45:18;5.85;;;3.50;;
75216;SDS011;63800;51.972;5.682;2023-05-18T04:47:45;6.88;;;3.20;;
75216;SDS011;63800;51.972;5.682;2023-05-18T04:50:13;5.95;;;2.92;;
75216;SDS011;63800;51.972;5.682;2023-05-18T04:52:42;4.75;;;3.25;;
75216;SDS011;63800;51.972;5.682;2023-05-18T04:55:12;5.85;;;3.55;;
75216;SDS011;63800;51.972;5.682;2023-05-18T04:57:51;5.45;;;3.00;;
75216;SDS011;63800;51.972;5.682;2023-05-18T05:00:20;7.65;;;3.20;;
75216;SDS011;63800;51.972;5.682;2023-05-18T05:02:48;4.97;;;3.00;;
75216;SDS011;63800;51.972;5.682;2023-05-18T05:05:13;6.03;;;3.13;;
75216;SDS011;63800;51.972;5.682;2023-05-18T05:07:39;7.63;;;2.90;;
75216;SDS011;63800;51.972;5.682;2023-05-18T05:10:04;6.97;;;3.13;;
75216;SDS011;63800;51.972;5.682;2023-05-18T05:12:30;9.20;;;3.30;;
75216;SDS011;63800;51.972;5.682;2023-05-18T05:14:56;6.72;;;3.08;;
75216;SDS011;63800;51.972;5.682;2023-05-18T05:17:21;6.10;;;3.60;;
75216;SDS011;63800;51.972;5.682;2023-05-18T05:19:47;5.82;;;3.20;;
75216;SDS011;63800;51.972;5.682;2023-05-18T05:22:13;6.53;;;3.10;;
75216;SDS011;63800;51.972;5.682;2023-05-18T05:24:38;8.00;;;3.08;;
75216;SDS011;63800;51.972;5.682;2023-05-18T05:27:04;6.13;;;3.22;;
75216;SDS011;63800;51.972;5.682;2023-05-18T05:29:29;6.20;;;3.13;;
75216;SDS011;63800;51.972;5.682;2023-05-18T05:31:55;7.07;;;3.10;;
75216;SDS011;63800;51.972;5.682;2023-05-18T05:34:20;6.35;;;3.72;;
75216;SDS011;63800;51.972;5.682;2023-05-18T05:36:46;6.85;;;3.30;;
75216;SDS011;63800;51.972;5.682;2023-05-18T05:39:11;6.30;;;3.22;;
75216;SDS011;63800;51.972;5.682;2023-05-18T05:41:37;9.02;;;3.20;;
75216;SDS011;63800;51.972;5.682;2023-05-18T05:44:03;9.27;;;4.78;;
75216;SDS011;63800;51.972;5.682;2023-05-18T05:46:28;6.13;;;3.35;;
75216;SDS011;63800;51.972;5.682;2023-05-18T05:48:54;5.65;;;3.13;;
75216;SDS011;63800;51.972;5.682;2023-05-18T05:51:21;6.68;;;3.20;;
75216;SDS011;63800;51.972;5.682;2023-05-18T05:53:46;7.85;;;3.20;;
75216;SDS011;63800;51.972;5.682;2023-05-18T05:56:13;7.68;;;3.50;;
75216;SDS011;63800;51.972;5.682;2023-05-18T05:58:39;6.18;;;3.10;;
75216;SDS011;63800;51.972;5.682;2023-05-18T06:01:06;5.68;;;3.00;;
75216;SDS011;63800;51.972;5.682;2023-05-18T06:03:32;8.18;;;3.47;;
75216;SDS011;63800;51.972;5.682;2023-05-18T06:05:58;8.38;;;3.10;;
75216;SDS011;63800;51.972;5.682;2023-05-18T06:08:23;5.55;;;3.13;;
75216;SDS011;63800;51.972;5.682;2023-05-18T06:10:49;6.88;;;3.13;;
75216;SDS011;63800;51.972;5.682;2023-05-18T06:13:15;8.65;;;3.20;;
75216;SDS011;63800;51.972;5.682;2023-05-18T06:15:41;5.22;;;3.10;;
75216;SDS011;63800;51.972;5.682;2023-05-18T06:18:06;6.35;;;2.67;;
75216;SDS011;63800;51.972;5.682;2023-05-18T06:20:32;6.90;;;3.25;;
75216;SDS011;63800;51.972;5.682;2023-05-18T06:22:57;8.68;;;3.15;;
75216;SDS011;63800;51.972;5.682;2023-05-18T06:25:23;8.25;;;3.13;;
75216;SDS011;63800;51.972;5.682;2023-05-18T06:27:49;7.05;;;2.80;;
75216;SDS011;63800;51.972;5.682;2023-05-18T06:30:14;5.32;;;2.90;;
75216;SDS011;63800;51.972;5.682;2023-05-18T06:32:40;6.90;;;2.40;;
75216;SDS011;63800;51.972;5.682;2023-05-18T06:35:05;6.97;;;2.60;;
75216;SDS011;63800;51.972;5.682;2023-05-18T06:37:31;6.20;;;2.60;;
75216;SDS011;63800;51.972;5.682;2023-05-18T06:39:57;4.07;;;2.38;;
75216;SDS011;63800;51.972;5.682;2023-05-18T06:42:22;3.15;;;2.10;;
75216;SDS011;63800;51.972;5.682;2023-05-18T06:44:48;4.93;;;2.40;;
75216;SDS011;63800;51.972;5.682;2023-05-18T06:47:14;5.53;;;2.28;;
75216;SDS011;63800;51.972;5.682;2023-05-18T06:49:40;4.50;;;2.45;;
75216;SDS011;63800;51.972;5.682;2023-05-18T06:52:06;7.13;;;2.47;;
75216;SDS011;63800;51.972;5.682;2023-05-18T06:54:33;8.05;;;2.55;;
75216;SDS011;63800;51.972;5.682;2023-05-18T06:57:02;7.03;;;2.58;;
75216;SDS011;63800;51.972;5.682;2023-05-18T06:59:27;8.13;;;2.40;;
75216;SDS011;63800;51.972;5.682;2023-05-18T07:01:53;9.05;;;2.70;;
75216;SDS011;63800;51.972;5.682;2023-05-18T07:04:18;7.70;;;2.40;;
75216;SDS011;63800;51.972;5.682;2023-05-18T07:06:44;6.43;;;2.55;;
75216;SDS011;63800;51.972;5.682;2023-05-18T07:09:10;6.43;;;2.72;;
75216;SDS011;63800;51.972;5.682;2023-05-18T07:11:36;6.32;;;2.72;;
75216;SDS011;63800;51.972;5.682;2023-05-18T07:14:04;5.32;;;2.40;;
75216;SDS011;63800;51.972;5.682;2023-05-18T07:16:29;4.82;;;2.40;;
75216;SDS011;63800;51.972;5.682;2023-05-18T07:18:55;6.78;;;2.55;;
75216;SDS011;63800;51.972;5.682;2023-05-18T07:21:22;7.20;;;2.60;;
75216;SDS011;63800;51.972;5.682;2023-05-18T07:23:48;5.85;;;2.05;;
75216;SDS011;63800;51.972;5.682;2023-05-18T07:26:16;6.75;;;2.72;;
75216;SDS011;63800;51.972;5.682;2023-05-18T07:28:42;5.25;;;2.33;;
75216;SDS011;63800;51.972;5.682;2023-05-18T07:31:07;6.15;;;2.58;;
75216;SDS011;63800;51.972;5.682;2023-05-18T07:33:33;7.35;;;3.08;;
75216;SDS011;63800;51.972;5.682;2023-05-18T07:35:59;4.70;;;2.40;;
75216;SDS011;63800;51.972;5.682;2023-05-18T07:38:24;5.68;;;3.00;;
75216;SDS011;63800;51.972;5.682;2023-05-18T07:40:50;6.57;;;2.70;;
75216;SDS011;63800;51.972;5.682;2023-05-18T07:43:15;7.43;;;2.50;;
75216;SDS011;63800;51.972;5.682;2023-05-18T07:45:41;4.60;;;2.47;;
75216;SDS011;63800;51.972;5.682;2023-05-18T07:48:06;7.60;;;2.35;;
75216;SDS011;63800;51.972;5.682;2023-05-18T07:50:32;5.60;;;2.15;;
75216;SDS011;63800;51.972;5.682;2023-05-18T07:52:58;7.45;;;2.58;;
75216;SDS011;63800;51.972;5.682;2023-05-18T07:55:24;8.13;;;2.50;;
75216;SDS011;63800;51.972;5.682;2023-05-18T07:57:49;4.47;;;2.35;;
75216;SDS011;63800;51.972;5.682;2023-05-18T08:00:15;7.15;;;2.45;;
75216;SDS011;63800;51.972;5.682;2023-05-18T08:02:42;6.22;;;2.58;;
75216;SDS011;63800;51.972;5.682;2023-05-18T08:05:09;5.80;;;2.40;;
75216;SDS011;63800;51.972;5.682;2023-05-18T08:07:34;5.68;;;2.58;;
75216;SDS011;63800;51.972;5.682;2023-05-18T08:10:00;6.43;;;2.53;;
75216;SDS011;63800;51.972;5.682;2023-05-18T08:12:26;8.20;;;2.58;;
75216;SDS011;63800;51.972;5.682;2023-05-18T08:14:53;6.47;;;2.25;;
75216;SDS011;63800;51.972;5.682;2023-05-18T08:17:19;5.15;;;2.72;;
75216;SDS011;63800;51.972;5.682;2023-05-18T08:19:45;6.00;;;2.47;;
75216;SDS011;63800;51.972;5.682;2023-05-18T08:22:11;7.07;;;2.30;;
75216;SDS011;63800;51.972;5.682;2023-05-18T08:24:37;7.38;;;2.58;;
75216;SDS011;63800;51.972;5.682;2023-05-18T08:27:02;5.45;;;2.58;;
75216;SDS011;63800;51.972;5.682;2023-05-18T08:29:28;5.93;;;2.60;;
75216;SDS011;63800;51.972;5.682;2023-05-18T08:31:54;3.60;;;2.22;;
75216;SDS011;63800;51.972;5.682;2023-05-18T08:34:19;6.10;;;2.78;;
75216;SDS011;63800;51.972;5.682;2023-05-18T08:36:45;7.30;;;2.63;;
75216;SDS011;63800;51.972;5.682;2023-05-18T08:39:11;6.78;;;3.30;;
75216;SDS011;63800;51.972;5.682;2023-05-18T08:44:21;7.40;;;2.92;;
75216;SDS011;63800;51.972;5.682;2023-05-18T08:46:49;6.68;;;2.50;;
75216;SDS011;63800;51.972;5.682;2023-05-18T08:49:16;6.40;;;2.60;;
75216;SDS011;63800;51.972;5.682;2023-05-18T08:51:47;7.93;;;2.90;;
75216;SDS011;63800;51.972;5.682;2023-05-18T08:54:21;4.95;;;2.60;;
75216;SDS011;63800;51.972;5.682;2023-05-18T08:56:47;9.75;;;2.80;;
75216;SDS011;63800;51.972;5.682;2023-05-18T08:59:13;5.93;;;2.78;;
75216;SDS011;63800;51.972;5.682;2023-05-18T09:01:42;7.90;;;2.60;;
75216;SDS011;63800;51.972;5.682;2023-05-18T09:04:08;6.47;;;2.65;;
75216;SDS011;63800;51.972;5.682;2023-05-18T09:06:34;7.07;;;3.03;;
75216;SDS011;63800;51.972;5.682;2023-05-18T09:09:00;6.45;;;3.10;;
75216;SDS011;63800;51.972;5.682;2023-05-18T09:11:31;6.55;;;2.70;;
75216;SDS011;63800;51.972;5.682;2023-05-18T09:13:58;6.05;;;3.13;;
75216;SDS011;63800;51.972;5.682;2023-05-18T09:16:24;5.07;;;2.92;;
75216;SDS011;63800;51.972;5.682;2023-05-18T09:18:50;6.63;;;2.70;;
75216;SDS011;63800;51.972;5.682;2023-05-18T09:21:15;8.85;;;2.92;;
75216;SDS011;63800;51.972;5.682;2023-05-18T09:23:42;6.68;;;2.83;;
75216;SDS011;63800;51.972;5.682;2023-05-18T09:26:08;6.90;;;2.70;;
75216;SDS011;63800;51.972;5.682;2023-05-18T09:28:35;7.82;;;2.97;;
75216;SDS011;63800;51.972;5.682;2023-05-18T09:31:35;7.50;;;3.10;;
75216;SDS011;63800;51.972;5.682;2023-05-18T09:33:54;7.75;;;2.70;;
75216;SDS011;63800;51.972;5.682;2023-05-18T09:36:23;6.18;;;2.90;;
75216;SDS011;63800;51.972;5.682;2023-05-18T09:38:50;6.22;;;2.90;;
75216;SDS011;63800;51.972;5.682;2023-05-18T09:41:17;6.15;;;2.78;;
75216;SDS011;63800;51.972;5.682;2023-05-18T09:43:43;5.07;;;2.72;;
75216;SDS011;63800;51.972;5.682;2023-05-18T09:46:10;6.57;;;2.50;;
75216;SDS011;63800;51.972;5.682;2023-05-18T09:48:41;7.15;;;2.60;;
75216;SDS011;63800;51.972;5.682;2023-05-18T09:51:11;5.35;;;2.75;;
75216;SDS011;63800;51.972;5.682;2023-05-18T09:53:41;5.07;;;3.00;;
75216;SDS011;63800;51.972;5.682;2023-05-18T09:56:06;6.35;;;3.20;;
75216;SDS011;63800;51.972;5.682;2023-05-18T09:58:36;10.25;;;3.30;;
75216;SDS011;63800;51.972;5.682;2023-05-18T10:01:03;7.72;;;2.78;;
75216;SDS011;63800;51.972;5.682;2023-05-18T10:03:33;6.35;;;2.53;;
75216;SDS011;63800;51.972;5.682;2023-05-18T10:06:06;4.80;;;2.72;;
75216;SDS011;63800;51.972;5.682;2023-05-18T10:08:37;7.15;;;2.88;;
75216;SDS011;63800;51.972;5.682;2023-05-18T10:11:03;9.18;;;3.15;;
75216;SDS011;63800;51.972;5.682;2023-05-18T10:13:30;10.43;;;2.90;;
75216;SDS011;63800;51.972;5.682;2023-05-18T10:15:57;6.82;;;2.58;;
75216;SDS011;63800;51.972;5.682;2023-05-18T10:18:27;5.78;;;3.50;;
75216;SDS011;63800;51.972;5.682;2023-05-18T10:20:55;5.00;;;2.92;;
75216;SDS011;63800;51.972;5.682;2023-05-18T10:23:22;7.85;;;3.40;;
75216;SDS011;63800;51.972;5.682;2023-05-18T10:25:49;6.75;;;2.75;;
75216;SDS011;63800;51.972;5.682;2023-05-18T10:28:22;7.80;;;3.30;;
75216;SDS011;63800;51.972;5.682;2023-05-18T10:30:53;7.47;;;3.13;;
75216;SDS011;63800;51.972;5.682;2023-05-18T10:33:24;7.15;;;3.15;;
75216;SDS011;63800;51.972;5.682;2023-05-18T10:35:51;5.75;;;3.13;;
75216;SDS011;63800;51.972;5.682;2023-05-18T10:38:19;7.97;;;2.80;;
75216;SDS011;63800;51.972;5.682;2023-05-18T10:40:49;5.53;;;2.75;;
75216;SDS011;63800;51.972;5.682;2023-05-18T10:43:17;7.00;;;3.00;;
75216;SDS011;63800;51.972;5.682;2023-05-18T10:45:45;5.97;;;2.60;;
75216;SDS011;63800;51.972;5.682;2023-05-18T10:48:12;5.32;;;2.50;;
75216;SDS011;63800;51.972;5.682;2023-05-18T10:50:39;7.35;;;2.92;;
75216;SDS011;63800;51.972;5.682;2023-05-18T10:53:06;7.97;;;3.33;;
75216;SDS011;63800;51.972;5.682;2023-05-18T10:55:33;5.10;;;3.00;;
75216;SDS011;63800;51.972;5.682;2023-05-18T10:58:04;5.00;;;2.58;;
75216;SDS011;63800;51.972;5.682;2023-05-18T11:00:34;6.25;;;2.95;;
75216;SDS011;63800;51.972;5.682;2023-05-18T11:03:02;6.95;;;3.10;;
75216;SDS011;63800;51.972;5.682;2023-05-18T11:05:31;6.32;;;2.72;;
75216;SDS011;63800;51.972;5.682;2023-05-18T11:08:00;6.93;;;3.20;;
75216;SDS011;63800;51.972;5.682;2023-05-18T11:10:48;6.07;;;3.20;;
75216;SDS011;63800;51.972;5.682;2023-05-18T11:13:13;8.13;;;2.92;;
75216;SDS011;63800;51.972;5.682;2023-05-18T11:18:17;6.72;;;3.28;;
75216;SDS011;63800;51.972;5.682;2023-05-18T11:20:44;6.78;;;2.80;;
75216;SDS011;63800;51.972;5.682;2023-05-18T11:23:10;6.28;;;2.58;;
75216;SDS011;63800;51.972;5.682;2023-05-18T11:25:39;6.25;;;3.25;;
75216;SDS011;63800;51.972;5.682;2023-05-18T11:28:10;4.57;;;2.67;;
75216;SDS011;63800;51.972;5.682;2023-05-18T11:33:08;4.47;;;3.10;;
75216;SDS011;63800;51.972;5.682;2023-05-18T11:38:48;6.38;;;3.20;;
75216;SDS011;63800;51.972;5.682;2023-05-18T11:44:35;6.20;;;3.70;;
75216;SDS011;63800;51.972;5.682;2023-05-18T11:46:51;4.82;;;2.85;;
75216;SDS011;63800;51.972;5.682;2023-05-18T11:49:22;5.35;;;3.10;;
75216;SDS011;63800;51.972;5.682;2023-05-18T11:51:56;6.40;;;3.10;;
75216;SDS011;63800;51.972;5.682;2023-05-18T11:54:27;7.38;;;3.03;;
75216;SDS011;63800;51.972;5.682;2023-05-18T11:56:57;8.60;;;3.15;;
75216;SDS011;63800;51.972;5.682;2023-05-18T11:59:56;6.07;;;2.75;;
75216;SDS011;63800;51.972;5.682;2023-05-18T12:02:25;4.95;;;3.38;;
75216;SDS011;63800;51.972;5.682;2023-05-18T12:04:52;6.65;;;3.25;;
75216;SDS011;63800;51.972;5.682;2023-05-18T12:07:20;6.40;;;3.05;;
75216;SDS011;63800;51.972;5.682;2023-05-18T12:09:47;5.78;;;3.30;;
75216;SDS011;63800;51.972;5.682;2023-05-18T12:12:14;5.70;;;3.08;;
75216;SDS011;63800;51.972;5.682;2023-05-18T12:14:41;7.25;;;3.45;;
75216;SDS011;63800;51.972;5.682;2023-05-18T12:17:09;5.50;;;2.83;;
75216;SDS011;63800;51.972;5.682;2023-05-18T12:19:53;4.43;;;2.97;;
75216;SDS011;63800;51.972;5.682;2023-05-18T12:22:18;5.65;;;3.55;;
75216;SDS011;63800;51.972;5.682;2023-05-18T12:24:43;7.50;;;3.67;;
75216;SDS011;63800;51.972;5.682;2023-05-18T12:27:10;7.97;;;3.40;;
75216;SDS011;63800;51.972;5.682;2023-05-18T12:29:37;5.70;;;3.70;;
75216;SDS011;63800;51.972;5.682;2023-05-18T12:32:07;7.57;;;3.50;;
75216;SDS011;63800;51.972;5.682;2023-05-18T12:34:34;6.40;;;3.50;;
75216;SDS011;63800;51.972;5.682;2023-05-18T12:36:59;9.27;;;3.65;;
75216;SDS011;63800;51.972;5.682;2023-05-18T12:39:25;3.58;;;3.08;;
75216;SDS011;63800;51.972;5.682;2023-05-18T12:41:50;7.88;;;3.60;;
75216;SDS011;63800;51.972;5.682;2023-05-18T12:44:16;6.53;;;3.55;;
75216;SDS011;63800;51.972;5.682;2023-05-18T12:46:42;7.80;;;3.53;;
75216;SDS011;63800;51.972;5.682;2023-05-18T12:49:08;5.30;;;3.20;;
75216;SDS011;63800;51.972;5.682;2023-05-18T12:51:34;5.32;;;3.05;;
75216;SDS011;63800;51.972;5.682;2023-05-18T12:54:01;7.25;;;2.97;;
75216;SDS011;63800;51.972;5.682;2023-05-18T12:56:47;5.18;;;2.97;;
75216;SDS011;63800;51.972;5.682;2023-05-18T12:59:26;6.35;;;3.10;;
75216;SDS011;63800;51.972;5.682;2023-05-18T13:01:53;5.38;;;3.03;;
75216;SDS011;63800;51.972;5.682;2023-05-18T13:04:18;6.10;;;3.30;;
75216;SDS011;63800;51.972;5.682;2023-05-18T13:06:44;5.32;;;3.35;;
75216;SDS011;63800;51.972;5.682;2023-05-18T13:09:13;4.90;;;3.05;;
75216;SDS011;63800;51.972;5.682;2023-05-18T13:11:39;5.88;;;3.10;;
75216;SDS011;63800;51.972;5.682;2023-05-18T13:14:10;5.18;;;3.03;;
75216;SDS011;63800;51.972;5.682;2023-05-18T13:16:40;7.07;;;3.42;;
75216;SDS011;63800;51.972;5.682;2023-05-18T13:19:09;7.18;;;3.13;;
75216;SDS011;63800;51.972;5.682;2023-05-18T13:21:35;4.38;;;3.17;;
75216;SDS011;63800;51.972;5.682;2023-05-18T13:24:02;7.93;;;3.80;;
75216;SDS011;63800;51.972;5.682;2023-05-18T13:26:28;5.40;;;3.50;;
75216;SDS011;63800;51.972;5.682;2023-05-18T13:28:55;5.13;;;3.05;;
75216;SDS011;63800;51.972;5.682;2023-05-18T13:31:21;5.65;;;3.53;;
75216;SDS011;63800;51.972;5.682;2023-05-18T13:33:48;7.13;;;3.38;;
75216;SDS011;63800;51.972;5.682;2023-05-18T13:36:14;4.90;;;3.35;;
75216;SDS011;63800;51.972;5.682;2023-05-18T13:38:40;4.97;;;3.20;;
75216;SDS011;63800;51.972;5.682;2023-05-18T13:41:08;5.93;;;3.15;;
75216;SDS011;63800;51.972;5.682;2023-05-18T13:43:34;6.80;;;3.15;;
75216;SDS011;63800;51.972;5.682;2023-05-18T13:46:00;6.03;;;3.40;;
75216;SDS011;63800;51.972;5.682;2023-05-18T13:48:27;4.80;;;3.20;;
75216;SDS011;63800;51.972;5.682;2023-05-18T13:50:53;7.18;;;3.70;;
75216;SDS011;63800;51.972;5.682;2023-05-18T13:53:19;6.88;;;4.20;;
75216;SDS011;63800;51.972;5.682;2023-05-18T13:55:44;7.03;;;3.65;;
75216;SDS011;63800;51.972;5.682;2023-05-18T13:58:10;7.07;;;3.60;;
75216;SDS011;63800;51.972;5.682;2023-05-18T14:00:35;5.70;;;3.40;;
75216;SDS011;63800;51.972;5.682;2023-05-18T14:03:00;19.58;;;4.75;;
75216;SDS011;63800;51.972;5.682;2023-05-18T14:05:26;7.72;;;3.72;;
75216;SDS011;63800;51.972;5.682;2023-05-18T14:07:52;5.22;;;3.20;;
75216;SDS011;63800;51.972;5.682;2023-05-18T14:10:18;10.52;;;3.70;;
75216;SDS011;63800;51.972;5.682;2023-05-18T14:12:44;7.80;;;4.10;;
75216;SDS011;63800;51.972;5.682;2023-05-18T14:15:10;5.65;;;3.15;;
75216;SDS011;63800;51.972;5.682;2023-05-18T14:17:37;6.82;;;3.33;;
75216;SDS011;63800;51.972;5.682;2023-05-18T14:20:03;5.85;;;3.33;;
75216;SDS011;63800;51.972;5.682;2023-05-18T14:22:30;5.40;;;3.25;;
75216;SDS011;63800;51.972;5.682;2023-05-18T14:24:55;5.05;;;3.40;;
75216;SDS011;63800;51.972;5.682;2023-05-18T14:27:21;6.00;;;3.05;;
75216;SDS011;63800;51.972;5.682;2023-05-18T14:29:46;7.40;;;3.65;;
75216;SDS011;63800;51.972;5.682;2023-05-18T14:32:12;6.20;;;3.00;;
75216;SDS011;63800;51.972;5.682;2023-05-18T14:34:38;7.32;;;3.92;;
75216;SDS011;63800;51.972;5.682;2023-05-18T14:37:03;5.20;;;3.28;;
75216;SDS011;63800;51.972;5.682;2023-05-18T14:39:29;6.40;;;3.22;;
75216;SDS011;63800;51.972;5.682;2023-05-18T14:41:54;5.50;;;3.35;;
75216;SDS011;63800;51.972;5.682;2023-05-18T14:44:20;4.63;;;3.30;;
75216;SDS011;63800;51.972;5.682;2023-05-18T14:46:45;5.13;;;2.97;;
75216;SDS011;63800;51.972;5.682;2023-05-18T14:49:11;8.27;;;3.35;;
75216;SDS011;63800;51.972;5.682;2023-05-18T14:51:36;8.88;;;3.22;;
75216;SDS011;63800;51.972;5.682;2023-05-18T14:54:02;6.07;;;3.08;;
75216;SDS011;63800;51.972;5.682;2023-05-18T14:56:27;7.25;;;3.63;;
75216;SDS011;63800;51.972;5.682;2023-05-18T14:58:53;5.75;;;3.70;;
75216;SDS011;63800;51.972;5.682;2023-05-18T15:01:18;5.40;;;3.00;;
75216;SDS011;63800;51.972;5.682;2023-05-18T15:03:44;6.15;;;3.30;;
75216;SDS011;63800;51.972;5.682;2023-05-18T15:06:09;5.80;;;3.40;;
75216;SDS011;63800;51.972;5.682;2023-05-18T15:08:35;6.28;;;3.30;;
75216;SDS011;63800;51.972;5.682;2023-05-18T15:11:00;5.47;;;3.40;;
75216;SDS011;63800;51.972;5.682;2023-05-18T15:13:26;4.75;;;2.90;;